Time;durP1;ratioP1;P1;durP2;ratioP2;P2;SDS_P1;SDS_P2;PMS_P1;PMS_P2;Temp;Humidity;BMP_temperature;BMP_pressure;BME280_temperature;BME280_humidity;BME280_pressure;Samples;Min_cycle;Max_cycle;Signal;HPM_P1;HPM_P2
2021/06/02 00:00:29;;;;;;;15.60;7.20;;;;;;;11.61;100.00;97817.94;4961426;29;20042;-83
2021/06/02 00:03:18;;;;;;;14.93;7.82;;;;;;;11.70;100.00;97816.06;4961956;29;20043;-83
2021/06/02 00:06:03;;;;;;;15.02;7.50;;;;;;;11.71;100.00;97816.88;4961298;28;20039;-83
2021/06/02 00:08:50;;;;;;;14.57;7.87;;;;;;;11.71;100.00;97814.94;4956582;29;20031;-82
2021/06/02 00:11:17;;;;;;;13.07;8.30;;;;;;;11.74;100.00;97824.38;4925990;29;20051;-81
2021/06/02 00:13:45;;;;;;;11.23;7.03;;;;;;;11.81;100.00;97821.97;4940723;29;20126;-81
2021/06/02 00:16:13;;;;;;;12.77;6.90;;;;;;;11.64;100.00;97824.66;4924840;29;20043;-81
2021/06/02 00:18:41;;;;;;;11.48;6.80;;;;;;;11.52;100.00;97821.72;4925139;29;20047;-81
2021/06/02 00:21:07;;;;;;;9.40;6.90;;;;;;;11.52;100.00;97821.72;4939763;29;20051;-83
2021/06/02 00:23:36;;;;;;;12.68;6.93;;;;;;;11.54;100.00;97820.31;4940075;29;20047;-81
2021/06/02 00:26:06;;;;;;;13.00;6.97;;;;;;;11.57;100.00;97819.66;4960000;29;20471;-83
2021/06/02 00:28:33;;;;;;;14.55;7.15;;;;;;;11.63;100.00;97821.13;4945092;29;20047;-82
2021/06/02 00:31:00;;;;;;;11.15;7.40;;;;;;;11.69;100.00;97822.59;4927044;28;20055;-82
2021/06/02 00:33:28;;;;;;;12.52;7.40;;;;;;;11.69;100.00;97821.81;4959054;28;20054;-83
2021/06/02 00:35:54;;;;;;;12.45;7.40;;;;;;;11.70;100.00;97823.38;4959605;29;20043;-82
2021/06/02 00:38:24;;;;;;;12.77;7.05;;;;;;;11.64;100.00;97809.16;4943410;29;20361;-82
2021/06/02 00:40:51;;;;;;;11.27;6.82;;;;;;;11.69;100.00;97819.88;4959595;28;20054;-81
2021/06/02 00:43:19;;;;;;;11.73;7.20;;;;;;;11.57;100.00;97810.72;4968270;29;20043;-82
2021/06/02 00:45:47;;;;;;;12.95;7.70;;;;;;;11.52;100.00;97811.69;4951233;29;20090;-80
2021/06/02 00:48:17;;;;;;;14.63;6.53;;;;;;;11.58;100.00;97820.47;4950241;29;20055;-83
2021/06/02 00:50:49;;;;;;;12.60;7.13;;;;;;;11.56;100.00;97801.03;4949640;28;20043;-82
2021/06/02 00:53:18;;;;;;;11.60;7.45;;;;;;;11.61;100.00;97814.44;4948596;29;20106;-84
2021/06/02 00:55:45;;;;;;;13.43;7.65;;;;;;;11.67;100.00;97816.66;4948018;29;20047;-84
2021/06/02 00:58:46;;;;;;;13.40;7.63;;;;;;;11.71;100.00;97814.16;4962668;29;20079;-82
2021/06/02 01:01:16;;;;;;;15.43;7.00;;;;;;;11.73;100.00;97822.75;4957110;28;20045;-83
2021/06/02 01:03:43;;;;;;;14.63;6.75;;;;;;;11.69;100.00;97814.44;4968161;29;20107;-84
2021/06/02 01:06:18;;;;;;;11.98;6.60;;;;;;;11.69;100.00;97813.69;4950589;29;20048;-82
2021/06/02 01:08:47;;;;;;;11.02;7.35;;;;;;;11.62;100.00;97810.59;4948119;29;20051;-82
2021/06/02 01:11:18;;;;;;;12.45;6.93;;;;;;;11.66;100.00;97817.78;4950174;29;20043;-81
2021/06/02 01:13:45;;;;;;;11.40;6.85;;;;;;;11.65;100.00;97809.94;4967117;29;20058;-83
2021/06/02 01:16:12;;;;;;;11.85;6.47;;;;;;;11.69;100.00;97811.72;4968045;29;20046;-81
2021/06/02 01:18:40;;;;;;;10.27;7.18;;;;;;;11.69;100.00;97803.59;4949976;29;20059;-83
2021/06/02 01:21:11;;;;;;;9.60;7.20;;;;;;;11.71;100.00;97806.00;4948887;28;20067;-81
2021/06/02 01:23:38;;;;;;;8.82;6.18;;;;;;;11.73;100.00;97799.16;4945446;29;20047;-81
2021/06/02 01:26:06;;;;;;;12.00;6.72;;;;;;;11.73;100.00;97793.72;4960424;29;20483;-82
2021/06/02 01:28:33;;;;;;;9.05;6.43;;;;;;;11.70;100.00;97813.34;4945287;29;20569;-82
2021/06/02 01:31:01;;;;;;;12.35;7.22;;;;;;;11.70;100.00;97813.34;4959631;28;20047;-83
2021/06/02 01:33:43;;;;;;;16.15;7.10;;;;;;;11.66;100.00;97816.97;4941194;29;20106;-84
2021/06/02 01:36:12;;;;;;;11.70;6.97;;;;;;;11.71;100.00;97814.16;4941044;29;20443;-84
2021/06/02 01:39:22;;;;;;;11.85;7.30;;;;;;;11.72;100.00;97826.56;4924973;29;20039;-83
2021/06/02 01:42:19;;;;;;;9.73;6.85;;;;;;;11.70;100.00;97815.25;4959515;28;20062;-82
2021/06/02 01:45:10;;;;;;;12.25;6.35;;;;;;;11.70;100.00;97820.69;4941154;28;20324;-83
2021/06/02 01:48:04;;;;;;;15.10;6.95;;;;;;;11.73;100.00;97825.47;4940395;29;20098;-83
2021/06/02 01:50:52;;;;;;;10.40;6.57;;;;;;;11.68;100.00;97815.59;4941677;29;20475;-82
2021/06/02 01:53:56;;;;;;;17.92;6.80;;;;;;;11.72;100.00;97819.25;4940837;29;20069;-84
2021/06/02 01:57:11;;;;;;;12.63;6.82;;;;;;;11.70;100.00;97815.25;4924340;29;20074;-82
2021/06/02 02:00:20;;;;;;;10.93;6.47;;;;;;;11.73;100.00;97806.50;4956079;29;20050;-81
2021/06/02 02:03:13;;;;;;;9.50;6.70;;;;;;;11.74;100.00;97824.38;4941820;29;20530;-83
2021/06/02 02:05:59;;;;;;;12.27;6.40;;;;;;;11.78;100.00;97814.47;4933059;29;20113;-81
2021/06/02 02:08:43;;;;;;;10.32;6.15;;;;;;;11.82;100.00;97808.09;4933072;29;20134;-82
2021/06/02 02:11:29;;;;;;;10.88;6.15;;;;;;;11.85;100.00;97818.31;4924480;29;20059;-83
2021/06/02 02:14:31;;;;;;;9.63;6.07;;;;;;;11.86;100.00;97814.47;4923216;29;20070;-82
2021/06/02 02:17:03;;;;;;;13.35;6.10;;;;;;;11.87;100.00;97821.50;4937050;29;20047;-83
2021/06/02 02:19:30;;;;;;;10.13;5.97;;;;;;;11.87;100.00;97821.50;4963814;29;20047;-83
2021/06/02 02:22:02;;;;;;;10.05;6.47;;;;;;;11.90;100.00;97811.91;4945028;29;20118;-83
2021/06/02 02:24:43;;;;;;;13.82;6.45;;;;;;;11.87;100.00;97813.34;4952640;28;20062;-84
2021/06/02 02:27:25;;;;;;;12.45;6.20;;;;;;;11.91;100.00;97810.81;4939089;29;20059;-81
2021/06/02 02:29:58;;;;;;;8.73;5.75;;;;;;;11.84;100.00;97824.06;4963800;29;20067;-83
2021/06/02 02:32:55;;;;;;;12.80;6.25;;;;;;;11.88;100.00;97819.56;4961222;29;20047;-82
2021/06/02 02:35:27;;;;;;;8.90;5.80;;;;;;;11.87;100.00;97828.84;4939590;29;20047;-83
2021/06/02 02:38:06;;;;;;;10.13;6.32;;;;;;;11.81;100.00;97821.97;4955315;29;20521;-80
2021/06/02 02:40:54;;;;;;;12.35;6.20;;;;;;;11.80;100.00;97820.38;4936350;29;20102;-80
2021/06/02 02:43:47;;;;;;;11.57;6.82;;;;;;;11.78;100.00;97833.44;4960206;29;20066;-83
2021/06/02 02:46:32;;;;;;;9.05;5.72;;;;;;;11.76;100.00;97831.06;4960740;29;20435;-81
2021/06/02 02:49:36;;;;;;;11.75;6.25;;;;;;;11.81;100.00;97832.81;4938500;29;20043;-81
2021/06/02 02:52:08;;;;;;;8.93;6.05;;;;;;;11.78;100.00;97833.44;4922330;29;20039;-81
2021/06/02 02:55:06;;;;;;;10.45;6.25;;;;;;;11.64;100.00;97836.25;4923917;29;20059;-81
2021/06/02 02:58:17;;;;;;;14.20;6.68;;;;;;;11.58;100.00;97842.97;4955196;28;20047;-81
2021/06/02 03:00:56;;;;;;;13.30;6.57;;;;;;;11.53;100.00;97850.44;4923666;29;20113;-80
2021/06/02 03:03:32;;;;;;;13.13;7.13;;;;;;;11.49;100.00;97842.13;4957161;29;20051;-80
2021/06/02 03:06:05;;;;;;;11.30;7.10;;;;;;;11.47;100.00;97849.78;4924632;29;20047;-80
2021/06/02 03:09:02;;;;;;;12.30;6.75;;;;;;;11.33;100.00;97846.38;4939997;29;20090;-80
2021/06/02 03:11:44;;;;;;;11.38;7.00;;;;;;;11.21;100.00;97846.19;4957606;29;20511;-81
2021/06/02 03:14:49;;;;;;;13.65;6.97;;;;;;;11.09;100.00;97851.41;4940923;29;20110;-81
2021/06/02 03:17:38;;;;;;;12.63;6.03;;;;;;;11.15;100.00;97858.28;4951254;29;20043;-82
2021/06/02 03:20:23;;;;;;;12.30;6.55;;;;;;;11.17;100.00;97859.56;4970693;29;20047;-83
2021/06/02 03:23:15;;;;;;;10.90;6.07;;;;;;;11.16;100.00;97863.41;4969561;29;20062;-83
2021/06/02 03:26:00;;;;;;;10.02;6.40;;;;;;;11.08;100.00;97856.03;4953509;29;20047;-81
2021/06/02 03:29:07;;;;;;;12.38;6.47;;;;;;;11.09;100.00;97856.84;4949115;29;20047;-82
2021/06/02 03:31:46;;;;;;;9.10;5.90;;;;;;;11.02;100.00;97859.97;4968329;28;20568;-82
2021/06/02 03:34:25;;;;;;;10.65;6.63;;;;;;;11.03;100.00;97855.38;4966531;29;20047;-81
2021/06/02 03:37:00;;;;;;;11.35;6.57;;;;;;;11.07;100.00;97867.19;4946708;29;20103;-81
2021/06/02 03:39:49;;;;;;;10.15;6.57;;;;;;;11.05;100.00;97856.66;4950587;29;20047;-83
2021/06/02 03:42:26;;;;;;;11.63;7.07;;;;;;;11.08;100.00;97869.59;4969098;28;20046;-83
2021/06/02 03:45:18;;;;;;;11.77;7.18;;;;;;;11.07;100.00;97865.25;4935100;29;20069;-82
2021/06/02 03:48:13;;;;;;;12.02;6.43;;;;;;;10.98;100.00;97869.84;4953166;29;20047;-84
2021/06/02 03:50:47;;;;;;;13.38;6.85;;;;;;;10.95;100.00;97870.47;4968440;29;20044;-83
2021/06/02 03:53:23;;;;;;;11.45;6.90;;;;;;;10.97;100.00;97868.25;4962719;29;20110;-82
2021/06/02 03:56:08;;;;;;;13.25;6.28;;;;;;;11.05;100.00;97872.91;4943478;29;20104;-81
2021/06/02 03:59:06;;;;;;;13.38;5.47;;;;;;;11.14;100.00;97878.38;4927820;29;20082;-82
2021/06/02 04:01:49;;;;;;;11.15;6.13;;;;;;;11.17;100.00;97870.41;4927458;29;20050;-82
2021/06/02 04:04:39;;;;;;;10.75;6.28;;;;;;;11.31;100.00;97878.44;4942108;29;20562;-82
2021/06/02 04:07:08;;;;;;;9.80;5.88;;;;;;;11.40;100.00;97881.19;4943149;28;20054;-79
2021/06/02 04:09:38;;;;;;;13.43;5.80;;;;;;;11.48;100.00;97883.13;4967443;29;20289;-83
2021/06/02 04:12:18;;;;;;;11.73;6.00;;;;;;;11.57;100.00;97875.81;4963392;28;20298;-82
2021/06/02 04:14:56;;;;;;;10.75;6.60;;;;;;;11.67;100.00;97878.22;4961058;29;20487;-81
2021/06/02 04:17:24;;;;;;;10.77;6.20;;;;;;;11.75;100.00;97874.78;4957004;29;20057;-81
2021/06/02 04:19:51;;;;;;;11.18;6.35;;;;;;;11.85;100.00;97869.03;4940792;29;20078;-80
2021/06/02 04:22:21;;;;;;;9.95;6.22;;;;;;;12.00;100.00;97879.44;4960573;28;20043;-81
2021/06/02 04:24:49;;;;;;;13.80;6.50;;;;;;;12.14;100.00;97871.16;4959801;29;20051;-80
2021/06/02 04:27:18;;;;;;;12.68;6.53;;;;;;;12.36;100.00;97879.91;4957873;29;20050;-80
2021/06/02 04:29:51;;;;;;;11.52;6.35;;;;;;;12.62;100.00;97871.75;4942184;29;20051;-82
2021/06/02 04:32:21;;;;;;;9.07;5.60;;;;;;;12.87;100.00;97872.84;4959515;28;20051;-81
2021/06/02 04:34:49;;;;;;;13.85;5.95;;;;;;;13.06;100.00;97857.75;4941971;29;20055;-80
2021/06/02 04:37:19;;;;;;;11.20;5.75;;;;;;;13.38;100.00;97861.00;4942568;29;20527;-80
2021/06/02 04:39:46;;;;;;;12.88;5.32;;;;;;;13.58;100.00;97860.25;4959566;29;20051;-80
2021/06/02 04:42:13;;;;;;;9.35;5.70;;;;;;;13.83;100.00;97855.81;4961374;28;20058;-80
2021/06/02 04:44:39;;;;;;;10.18;5.53;;;;;;;14.02;100.00;97861.56;4950651;29;20051;-82
2021/06/02 04:47:07;;;;;;;13.68;5.57;;;;;;;14.24;100.00;97859.34;4971829;29;20103;-81
2021/06/02 04:49:58;;;;;;;8.95;5.40;;;;;;;14.39;100.00;97859.88;4942723;28;20055;-81
2021/06/02 04:52:55;;;;;;;10.90;5.50;;;;;;;14.61;100.00;97867.66;4950081;28;20526;-82
2021/06/02 04:55:21;;;;;;;;;;;;;;;14.78;100.00;97871.06;4969575;28;20054;-82
2021/06/02 04:58:06;;;;;;;;;;;;;;;14.94;100.00;97877.44;4957919;29;19933;-81
2021/06/02 05:01:03;;;;;;;10.65;4.97;;;;;;;15.05;100.00;97877.00;4937860;28;19930;-81
2021/06/02 05:04:09;;;;;;;7.97;5.03;;;;;;;14.97;100.00;97862.34;4939256;29;20078;-81
2021/06/02 05:07:11;;;;;;;9.73;5.00;;;;;;;15.20;100.00;97868.97;4956803;29;20039;-82
2021/06/02 05:10:28;;;;;;;10.10;4.95;;;;;;;15.31;100.00;97877.50;4958117;29;20078;-81
2021/06/02 05:13:26;;;;;;;8.25;4.38;;;;;;;15.39;100.00;97884.78;4939386;29;20340;-82
2021/06/02 05:16:34;;;;;;;9.32;4.80;;;;;;;15.42;100.00;97887.66;4962489;29;20043;-82
2021/06/02 05:22:35;;;;;;;10.43;4.90;;;;;;;15.63;100.00;97889.50;4940611;29;20055;-81
2021/06/02 05:25:10;;;;;;;9.02;5.20;;;;;;;15.64;100.00;97891.09;4938105;29;20503;-81
2021/06/02 05:28:01;;;;;;;10.38;4.68;;;;;;;15.73;100.00;97894.50;4958242;29;20455;-81
2021/06/02 05:30:54;;;;;;;9.50;4.68;;;;;;;15.79;100.00;97899.41;4940287;29;20052;-82
2021/06/02 05:33:58;;;;;;;15.13;5.63;;;;;;;15.86;100.00;97901.56;4958072;29;20039;-81
2021/06/02 05:37:03;;;;;;;14.52;6.75;;;;;;;15.91;100.00;97896.66;4957061;29;20043;-82
2021/06/02 05:40:01;;;;;;;11.38;5.15;;;;;;;16.07;100.00;97899.50;4958270;29;20127;-82
2021/06/02 05:43:05;;;;;;;13.05;5.60;;;;;;;16.29;100.00;97900.91;4957461;28;20059;-82
2021/06/02 05:46:12;;;;;;;9.70;5.10;;;;;;;16.40;100.00;97905.56;4956884;29;20459;-81
2021/06/02 05:49:12;;;;;;;11.60;4.93;;;;;;;16.68;100.00;97902.88;4955483;29;20192;-82
2021/06/02 05:51:58;;;;;;;12.02;4.35;;;;;;;16.79;100.00;97902.03;4955691;28;20047;-81
2021/06/02 05:54:57;;;;;;;9.98;4.30;;;;;;;17.06;100.00;97907.84;4957686;29;20131;-83
2021/06/02 05:57:26;;;;;;;13.13;4.57;;;;;;;17.18;100.00;97905.84;4957636;29;20050;-82
2021/06/02 06:00:21;;;;;;;11.85;4.18;;;;;;;17.20;100.00;97910.94;4957279;29;20039;-82
2021/06/02 06:03:05;;;;;;;10.02;4.30;;;;;;;17.14;100.00;97912.34;4954949;28;20482;-81
2021/06/02 06:06:09;;;;;;;15.95;4.32;;;;;;;17.11;100.00;97911.09;4925622;29;20392;-82
2021/06/02 06:09:20;;;;;;;9.60;4.40;;;;;;;17.08;100.00;97914.56;4948559;29;20051;-81
2021/06/02 06:12:05;;;;;;;12.43;4.35;;;;;;;17.14;100.00;97918.59;4939318;29;20050;-81
2021/06/02 06:15:04;;;;;;;11.15;4.65;;;;;;;17.11;100.00;97915.78;4954868;29;20121;-81
2021/06/02 06:18:08;;;;;;;7.60;3.70;;;;;;;17.15;100.00;97924.88;4933396;29;20056;-81
2021/06/02 06:20:59;;;;;;;9.07;3.78;;;;;;;17.14;100.00;97920.53;4957700;29;20043;-80
2021/06/02 06:23:35;;;;;;;10.75;3.50;;;;;;;17.28;100.00;97909.97;4954385;29;20058;-81
2021/06/02 06:26:31;;;;;;;9.02;3.53;;;;;;;17.45;100.00;97913.16;4954880;29;20063;-80
2021/06/02 06:29:28;;;;;;;7.38;3.40;;;;;;;17.57;100.00;97912.34;4947367;29;20129;-82
2021/06/02 06:31:59;;;;;;;8.32;3.65;;;;;;;17.85;100.00;97913.03;4957903;28;20148;-82
2021/06/02 06:34:32;;;;;;;10.10;2.75;;;;;;;17.97;100.00;97914.84;4968818;29;20053;-81
2021/06/02 06:37:01;;;;;;;10.57;2.97;;;;;;;18.10;100.00;97919.06;4944405;29;20058;-82
2021/06/02 06:39:54;;;;;;;9.65;3.28;;;;;;;18.21;100.00;97911.09;4939129;29;20055;-81
2021/06/02 06:42:28;;;;;;;11.63;3.10;;;;;;;18.22;100.00;97910.72;4955907;28;20507;-80
2021/06/02 06:45:04;;;;;;;7.85;2.80;;;;;;;18.42;100.00;97909.63;4954467;29;20114;-81
2021/06/02 06:47:35;;;;;;;9.73;2.88;;;;;;;18.35;100.00;97914.94;4953033;29;20451;-79
2021/06/02 06:50:07;;;;;;;9.07;2.80;;;;;;;18.47;100.00;97914.84;4953395;29;20094;-80
2021/06/02 06:52:34;;;;;;;6.75;2.45;;;;;;;18.56;100.00;97912.69;4955170;28;20408;-80
2021/06/02 06:55:05;;;;;;;5.55;2.72;;;;;;;18.68;100.00;97917.25;4953460;29;20121;-81
2021/06/02 06:57:44;;;;;;;6.57;2.63;;;;;;;18.76;100.00;97909.97;4962254;29;20035;-82
2021/06/02 07:00:12;;;;;;;7.80;2.78;;;;;;;19.05;100.00;97915.63;4939359;29;20044;-80
2021/06/02 07:02:42;;;;;;;13.85;2.92;;;;;;;19.18;100.00;97913.50;4939113;29;20078;-80
2021/06/02 07:05:13;;;;;;;4.90;2.95;;;;;;;19.34;93.49;97916.94;4956541;28;20050;-80
2021/06/02 07:07:43;;;;;;;5.10;2.63;;;;;;;19.45;86.67;97911.69;4956571;29;20106;-79
2021/06/02 07:10:12;;;;;;;12.50;2.97;;;;;;;19.64;78.36;97911.63;4957637;29;20070;-80
2021/06/02 07:12:42;;;;;;;9.93;2.95;;;;;;;19.84;76.76;97916.69;4959994;28;20051;-80
2021/06/02 07:15:11;;;;;;;6.63;2.70;;;;;;;19.89;79.78;97915.56;4958052;29;20170;-80
2021/06/02 07:17:48;;;;;;;7.32;2.60;;;;;;;20.12;90.45;97919.06;4923756;29;20410;-81
2021/06/02 07:20:20;;;;;;;7.70;2.33;;;;;;;20.14;78.74;97918.69;4956948;29;20047;-81
2021/06/02 07:22:49;;;;;;;5.45;2.65;;;;;;;20.34;69.14;97928.44;4954737;28;20133;-81
2021/06/02 07:25:22;;;;;;;11.52;2.53;;;;;;;20.27;72.33;97918.13;4955135;29;20059;-80
2021/06/02 07:27:50;;;;;;;9.82;2.85;;;;;;;20.55;71.67;97920.47;4953877;29;20043;-81
2021/06/02 07:30:18;;;;;;;7.18;2.40;;;;;;;20.63;69.80;97919.41;4954510;29;20058;-80
2021/06/02 07:32:47;;;;;;;7.10;2.80;;;;;;;20.70;67.06;97926.97;4954216;28;20083;-81
2021/06/02 07:35:15;;;;;;;6.10;2.67;;;;;;;20.86;68.28;97922.03;4953308;29;20057;-80
2021/06/02 07:37:41;;;;;;;8.57;2.75;;;;;;;21.09;69.08;97923.53;4953188;29;20042;-81
2021/06/02 07:40:09;;;;;;;6.47;2.97;;;;;;;21.49;63.55;97925.53;4954115;29;20047;-80
2021/06/02 07:42:38;;;;;;;5.18;2.60;;;;;;;22.10;61.55;97916.59;4939346;29;20047;-81
2021/06/02 07:45:06;;;;;;;6.72;2.78;;;;;;;22.28;56.56;97923.03;4941398;29;20519;-80
2021/06/02 07:47:33;;;;;;;10.13;2.42;;;;;;;22.73;55.17;97932.00;4961028;29;20039;-81
2021/06/02 07:50:00;;;;;;;4.88;2.63;;;;;;;22.90;53.33;97926.53;4955443;29;20051;-81
2021/06/02 07:52:27;;;;;;;4.88;2.10;;;;;;;23.04;53.52;97931.34;4934144;29;20114;-80
2021/06/02 07:54:54;;;;;;;9.65;2.42;;;;;;;22.80;52.10;97926.50;4959032;29;20515;-81
2021/06/02 07:57:21;;;;;;;6.90;2.40;;;;;;;22.79;52.41;97927.66;4959336;29;20403;-81
2021/06/02 07:59:48;;;;;;;8.52;2.60;;;;;;;22.47;53.92;97933.00;4942269;29;20051;-81
2021/06/02 08:02:14;;;;;;;4.82;2.60;;;;;;;22.58;53.96;97927.56;4935018;28;20123;-80
2021/06/02 08:04:43;;;;;;;5.32;2.80;;;;;;;22.49;54.42;97936.16;4940353;29;20073;-79
2021/06/02 08:07:10;;;;;;;6.13;2.47;;;;;;;22.42;55.35;97938.91;4940351;29;20039;-79
2021/06/02 08:09:37;;;;;;;5.03;2.30;;;;;;;22.29;52.66;97934.88;4938635;28;20059;-80
2021/06/02 08:12:06;;;;;;;5.70;2.38;;;;;;;22.21;57.14;97936.00;4938822;29;20043;-80
2021/06/02 08:14:35;;;;;;;5.82;2.45;;;;;;;22.37;55.04;97933.75;4939406;29;20058;-80
2021/06/02 08:17:02;;;;;;;4.47;2.40;;;;;;;22.29;55.57;97924.63;4939102;29;20050;-80
2021/06/02 08:19:29;;;;;;;4.68;2.03;;;;;;;22.50;53.48;97934.22;4923332;29;20051;-80
2021/06/02 08:21:56;;;;;;;9.35;2.60;;;;;;;22.56;52.95;97933.44;4939587;29;20044;-80
2021/06/02 08:24:22;;;;;;;6.45;2.92;;;;;;;22.66;53.10;97943.00;4939734;29;20156;-81
2021/06/02 08:26:49;;;;;;;5.60;2.38;;;;;;;22.59;51.33;97937.41;4956095;29;20554;-79
2021/06/02 08:29:16;;;;;;;5.57;2.13;;;;;;;22.55;52.42;97944.88;4956078;29;20404;-79
2021/06/02 08:31:43;;;;;;;6.57;2.30;;;;;;;22.54;50.99;97938.56;4956026;28;20347;-79
2021/06/02 08:34:10;;;;;;;5.70;2.25;;;;;;;22.39;48.97;97944.38;4956503;29;20051;-78
2021/06/02 08:36:36;;;;;;;6.93;2.50;;;;;;;22.53;50.53;97938.97;4955808;29;20043;-80
2021/06/02 08:39:06;;;;;;;6.80;2.60;;;;;;;22.54;49.99;97943.28;4956133;29;20203;-79
2021/06/02 08:41:32;;;;;;;6.10;2.50;;;;;;;22.52;50.02;97945.66;4939362;29;20074;-79
2021/06/02 08:44:12;;;;;;;4.25;2.40;;;;;;;22.65;51.73;97944.97;4941781;29;20495;-79
2021/06/02 08:46:41;;;;;;;6.53;2.40;;;;;;;22.93;52.62;97939.56;4955940;29;20043;-80
2021/06/02 08:49:12;;;;;;;9.23;2.50;;;;;;;22.86;49.76;97934.03;4955261;29;20079;-79
2021/06/02 08:51:39;;;;;;;4.68;2.20;;;;;;;22.97;49.45;97941.56;4955921;28;20051;-79
2021/06/02 08:54:06;;;;;;;3.65;2.30;;;;;;;22.99;46.47;97940.00;4955086;28;20446;-79
2021/06/02 08:56:38;;;;;;;5.15;2.25;;;;;;;23.17;45.86;97945.59;4956188;29;20050;-79
2021/06/02 08:59:05;;;;;;;4.10;2.17;;;;;;;23.18;46.44;97938.84;4956551;29;20562;-79
2021/06/02 09:01:32;;;;;;;4.88;2.22;;;;;;;22.97;46.49;97941.56;4938871;29;20047;-78
2021/06/02 09:04:07;;;;;;;6.93;2.30;;;;;;;23.16;46.47;97938.47;4963598;29;20043;-80
2021/06/02 09:06:42;;;;;;;6.00;2.30;;;;;;;23.00;46.61;97951.81;4949756;29;20047;-80
2021/06/02 09:09:11;;;;;;;7.43;2.77;;;;;;;23.34;47.56;97947.59;4966493;29;20086;-81
2021/06/02 09:11:51;;;;;;;5.60;2.47;;;;;;;23.67;47.53;97930.69;4950510;29;20448;-81
2021/06/02 09:14:30;;;;;;;8.82;2.75;;;;;;;23.60;44.28;97940.97;4931205;29;20522;-81
2021/06/02 09:17:00;;;;;;;6.47;2.30;;;;;;;23.76;46.40;97933.88;4964152;29;20066;-81
2021/06/02 09:19:43;;;;;;;5.75;2.30;;;;;;;23.98;46.28;97948.50;4947269;29;20513;-81
2021/06/02 09:22:21;;;;;;;8.27;2.20;;;;;;;24.17;42.29;97937.06;4964072;28;20047;-80
2021/06/02 09:24:48;;;;;;;8.13;2.00;;;;;;;24.26;41.54;97940.19;4943763;29;20098;-79
2021/06/02 09:27:18;;;;;;;8.18;2.60;;;;;;;24.35;43.07;97940.59;4939691;29;20193;-80
2021/06/02 09:29:54;;;;;;;5.35;1.95;;;;;;;24.38;42.68;97941.78;4939086;29;20066;-81
2021/06/02 09:32:24;;;;;;;6.07;2.20;;;;;;;25.10;40.10;97944.75;4923350;29;20123;-80
2021/06/02 09:35:01;;;;;;;4.75;2.25;;;;;;;25.63;39.00;97936.16;4938894;29;20051;-81
2021/06/02 09:37:30;;;;;;;6.22;2.33;;;;;;;26.11;38.80;97936.19;4938895;29;20035;-80
2021/06/02 09:39:57;;;;;;;8.68;2.30;;;;;;;26.22;37.47;97947.22;4923082;29;20415;-79
2021/06/02 09:42:28;;;;;;;8.95;2.10;;;;;;;25.99;38.79;97936.66;4959748;28;20051;-80
2021/06/02 09:45:10;;;;;;;4.53;1.88;;;;;;;26.73;35.53;97927.66;4960782;29;20047;-82
2021/06/02 09:48:06;;;;;;;3.72;1.92;;;;;;;26.44;36.15;97940.25;4958993;29;20408;-81
2021/06/02 09:50:36;;;;;;;4.40;1.92;;;;;;;26.95;35.31;97933.75;4942662;29;20075;-81
2021/06/02 09:53:05;;;;;;;3.00;1.95;;;;;;;27.05;35.90;97932.84;4941628;29;20455;-81
2021/06/02 09:55:33;;;;;;;4.63;1.75;;;;;;;27.17;35.31;97935.88;4958692;29;20465;-81
2021/06/02 09:58:09;;;;;;;4.57;2.28;;;;;;;27.53;35.09;97936.19;4940195;29;20071;-81
2021/06/02 10:00:42;;;;;;;6.88;2.22;;;;;;;27.94;33.91;97930.38;4919938;29;20159;-80
2021/06/02 10:03:11;;;;;;;4.35;2.53;;;;;;;28.76;34.34;97930.56;4919071;29;20047;-80
2021/06/02 10:05:40;;;;;;;4.60;1.92;;;;;;;29.85;32.83;97932.22;4936622;29;20052;-81
2021/06/02 10:08:11;;;;;;;3.22;1.77;;;;;;;30.56;31.39;97926.41;4937211;29;20043;-81
2021/06/02 10:10:42;;;;;;;7.70;1.80;;;;;;;29.58;30.97;97927.63;4938520;29;20054;-79
2021/06/02 10:13:12;;;;;;;7.57;1.83;;;;;;;30.52;31.62;97936.13;4939093;29;20239;-81
2021/06/02 10:15:42;;;;;;;5.35;1.98;;;;;;;31.16;29.21;97932.34;4921240;29;20047;-80
2021/06/02 10:18:37;;;;;;;3.60;2.00;;;;;;;31.77;30.15;97926.50;4947522;29;20051;-81
2021/06/02 10:21:13;;;;;;;6.50;1.92;;;;;;;31.77;29.16;97924.47;4931056;29;20067;-81
2021/06/02 10:23:46;;;;;;;2.35;1.90;;;;;;;29.94;30.56;97929.63;4921680;29;20051;-81
2021/06/02 10:26:14;;;;;;;5.75;1.80;;;;;;;31.25;28.88;97924.09;4937745;29;20058;-81
2021/06/02 10:28:43;;;;;;;4.85;2.00;;;;;;;31.31;28.57;97925.88;4937224;29;20468;-81
2021/06/02 10:31:13;;;;;;;3.92;1.73;;;;;;;33.06;26.26;97930.91;4937730;29;20055;-81
2021/06/02 10:33:40;;;;;;;4.60;1.77;;;;;;;32.42;24.69;97937.94;4922067;29;20046;-81
2021/06/02 10:36:09;;;;;;;3.42;1.67;;;;;;;31.99;25.90;97931.00;4938950;29;20047;-81
2021/06/02 10:39:06;;;;;;;19.33;3.45;;;;;;;31.13;27.24;97936.03;4939725;29;20098;-80
2021/06/02 10:42:05;;;;;;;13.15;2.88;;;;;;;31.96;27.03;97928.28;4922290;29;20060;-80
2021/06/02 10:44:36;;;;;;;11.70;2.22;;;;;;;30.22;28.66;97926.13;4938396;29;20558;-81
2021/06/02 10:47:04;;;;;;;10.73;3.75;;;;;;;30.79;29.08;97926.16;4939668;29;20510;-80
2021/06/02 10:49:36;;;;;;;4.68;1.95;;;;;;;31.03;28.72;97921.13;4908525;29;20048;-81
2021/06/02 10:52:04;;;;;;;10.18;2.30;;;;;;;31.28;27.41;97923.22;4940954;28;20400;-80
2021/06/02 10:54:36;;;;;;;6.20;2.40;;;;;;;30.55;28.19;97924.06;4917355;29;20118;-79
2021/06/02 10:57:07;;;;;;;9.70;2.70;;;;;;;30.63;28.35;97926.25;4935245;29;20456;-80
2021/06/02 10:59:41;;;;;;;3.60;1.90;;;;;;;31.48;27.97;97929.41;4917930;29;20650;-79
2021/06/02 11:02:27;;;;;;;5.40;1.85;;;;;;;33.08;26.45;97934.03;4917313;29;20193;-79
2021/06/02 11:04:58;;;;;;;7.25;1.83;;;;;;;33.84;23.45;97923.84;4917544;29;20062;-80
2021/06/02 11:07:26;;;;;;;4.35;1.70;;;;;;;33.63;25.72;97924.69;4936795;29;20050;-81
2021/06/02 11:09:56;;;;;;;3.97;2.50;;;;;;;32.03;26.28;97919.66;4920240;29;20463;-80
2021/06/02 11:12:24;;;;;;;6.13;1.70;;;;;;;30.47;26.49;97915.09;4938026;29;20055;-81
2021/06/02 11:14:53;;;;;;;2.75;1.70;;;;;;;31.82;26.96;97915.50;4934142;29;20039;-81
2021/06/02 11:17:23;;;;;;;6.03;1.83;;;;;;;33.30;26.13;97912.34;4921042;29;20039;-79
2021/06/02 11:19:53;;;;;;;6.13;2.13;;;;;;;32.03;25.14;97917.66;4939702;29;20044;-79
2021/06/02 11:22:25;;;;;;;4.40;2.20;;;;;;;32.69;25.91;97921.41;4922933;29;20044;-79
2021/06/02 11:24:53;;;;;;;3.88;2.00;;;;;;;32.44;25.92;97916.66;4939747;29;20099;-79
2021/06/02 11:27:20;;;;;;;9.27;2.00;;;;;;;32.37;25.88;97916.09;4923498;29;20047;-79
2021/06/02 11:32:24;;;;;;;6.40;2.00;;;;;;;30.35;26.99;97917.81;4945302;29;20428;-79
2021/06/02 11:34:53;;;;;;;4.95;1.75;;;;;;;32.45;26.62;97917.44;4943705;29;20111;-79
2021/06/02 11:37:22;;;;;;;2.40;1.67;;;;;;;32.86;23.42;97917.19;4923628;29;20436;-79
2021/06/02 11:39:51;;;;;;;3.78;1.80;;;;;;;30.11;26.39;97925.59;4923467;29;20056;-79
2021/06/02 11:42:30;;;;;;;10.38;2.03;;;;;;;30.47;28.74;97917.09;4940924;29;20074;-80
2021/06/02 11:45:12;;;;;;;3.80;1.90;;;;;;;30.95;27.68;97913.38;4938464;29;20050;-80
2021/06/02 11:47:43;;;;;;;4.63;1.80;;;;;;;32.05;27.31;97908.81;4939621;29;20050;-79
2021/06/02 11:50:16;;;;;;;5.78;1.88;;;;;;;31.47;26.31;97919.44;4921590;29;20043;-79
2021/06/02 11:52:55;;;;;;;8.77;2.22;;;;;;;29.53;28.10;97916.19;4938484;29;20110;-79
2021/06/02 11:55:22;;;;;;;7.22;2.00;;;;;;;28.90;29.13;97916.34;4921234;29;20044;-79
2021/06/02 11:57:51;;;;;;;6.30;1.50;;;;;;;28.33;29.91;97921.41;4920917;29;20058;-79
2021/06/02 12:00:20;;;;;;;5.13;1.88;;;;;;;29.12;29.57;97927.03;4920307;29;20115;-78
2021/06/02 12:02:52;;;;;;;3.45;2.60;;;;;;;28.86;30.23;97920.41;4937172;29;20051;-80
2021/06/02 12:05:27;;;;;;;5.10;2.25;;;;;;;28.22;30.45;97932.72;4937424;29;20059;-79
2021/06/02 12:08:11;;;;;;;5.22;1.60;;;;;;;28.78;29.95;97932.91;4936158;29;20036;-79
2021/06/02 12:10:43;;;;;;;4.97;1.80;;;;;;;29.83;27.23;97924.28;4904834;29;20047;-79
2021/06/02 12:13:26;;;;;;;6.75;1.70;;;;;;;30.25;28.59;97934.38;4937012;29;20134;-79
2021/06/02 12:16:01;;;;;;;3.53;1.60;;;;;;;29.03;29.91;97930.41;4937085;29;20106;-79
2021/06/02 12:18:43;;;;;;;9.07;3.40;;;;;;;29.07;30.96;97930.31;4940984;29;20036;-79